sensor_id;sensor_type;location;lat;lon;timestamp;pressure;altitude;pressure_sealevel;temperature;humidity
77153;BME280;66124;51.146;17.072;2023-05-25T00:01:40;100806.25;;;10.07;77.04
77153;BME280;66124;51.146;17.072;2023-05-25T00:04:11;100809.17;;;10.02;77.06
77153;BME280;66124;51.146;17.072;2023-05-25T00:06:40;100811.44;;;9.99;77.22
77153;BME280;66124;51.146;17.072;2023-05-25T00:09:09;100812.38;;;9.95;76.98
77153;BME280;66124;51.146;17.072;2023-05-25T00:11:39;100810.48;;;9.92;77.34
77153;BME280;66124;51.146;17.072;2023-05-25T00:14:09;100809.10;;;9.87;77.46
77153;BME280;66124;51.146;17.072;2023-05-25T00:16:38;100812.73;;;9.82;77.40
77153;BME280;66124;51.146;17.072;2023-05-25T00:19:07;100810.23;;;9.78;77.45
77153;BME280;66124;51.146;17.072;2023-05-25T00:21:37;100808.88;;;9.72;77.59
77153;BME280;66124;51.146;17.072;2023-05-25T00:24:06;100806.36;;;9.66;77.92
77153;BME280;66124;51.146;17.072;2023-05-25T00:26:36;100804.30;;;9.62;77.93
77153;BME280;66124;51.146;17.072;2023-05-25T00:29:06;100809.86;;;9.58;78.00
77153;BME280;66124;51.146;17.072;2023-05-25T00:31:35;100808.27;;;9.53;78.02
77153;BME280;66124;51.146;17.072;2023-05-25T00:34:04;100808.98;;;9.48;78.05
77153;BME280;66124;51.146;17.072;2023-05-25T00:36:34;100811.95;;;9.43;78.16
77153;BME280;66124;51.146;17.072;2023-05-25T00:39:05;100809.00;;;9.38;78.41
77153;BME280;66124;51.146;17.072;2023-05-25T00:41:34;100810.29;;;9.32;78.56
77153;BME280;66124;51.146;17.072;2023-05-25T00:44:04;100811.61;;;9.28;78.64
77153;BME280;66124;51.146;17.072;2023-05-25T00:46:34;100811.33;;;9.23;78.75
77153;BME280;66124;51.146;17.072;2023-05-25T00:49:05;100808.38;;;9.20;78.59
77153;BME280;66124;51.146;17.072;2023-05-25T00:51:34;100807.71;;;9.14;78.76
77153;BME280;66124;51.146;17.072;2023-05-25T00:54:04;100813.89;;;9.12;78.88
77153;BME280;66124;51.146;17.072;2023-05-25T00:56:37;100811.14;;;9.08;79.09
77153;BME280;66124;51.146;17.072;2023-05-25T00:59:10;100814.39;;;9.05;78.94
77153;BME280;66124;51.146;17.072;2023-05-25T01:01:43;100816.85;;;9.03;79.17
77153;BME280;66124;51.146;17.072;2023-05-25T01:07:22;100818.40;;;9.06;79.32
77153;BME280;66124;51.146;17.072;2023-05-25T01:09:56;100817.77;;;9.03;79.35
77153;BME280;66124;51.146;17.072;2023-05-25T01:12:27;100810.52;;;9.04;79.43
77153;BME280;66124;51.146;17.072;2023-05-25T01:14:57;100813.27;;;9.04;79.34
77153;BME280;66124;51.146;17.072;2023-05-25T01:17:28;100814.02;;;9.06;79.41
77153;BME280;66124;51.146;17.072;2023-05-25T01:19:57;100811.81;;;9.05;79.39
77153;BME280;66124;51.146;17.072;2023-05-25T01:22:30;100812.23;;;9.04;79.19
77153;BME280;66124;51.146;17.072;2023-05-25T01:25:05;100809.15;;;9.01;79.36
77153;BME280;66124;51.146;17.072;2023-05-25T01:27:42;100811.87;;;9.03;79.42
77153;BME280;66124;51.146;17.072;2023-05-25T01:30:14;100815.05;;;9.02;79.24
77153;BME280;66124;51.146;17.072;2023-05-25T01:32:45;100818.86;;;9.03;79.09
77153;BME280;66124;51.146;17.072;2023-05-25T01:35:17;100825.05;;;9.04;79.05
77153;BME280;66124;51.146;17.072;2023-05-25T01:37:48;100831.95;;;9.03;79.28
77153;BME280;66124;51.146;17.072;2023-05-25T01:40:17;100840.30;;;9.02;79.32
77153;BME280;66124;51.146;17.072;2023-05-25T01:42:47;100843.25;;;9.01;79.26
77153;BME280;66124;51.146;17.072;2023-05-25T01:45:16;100841.17;;;8.99;79.34
77153;BME280;66124;51.146;17.072;2023-05-25T01:48:04;100842.34;;;8.98;79.41
77153;BME280;66124;51.146;17.072;2023-05-25T01:50:46;100843.10;;;8.97;79.42
77153;BME280;66124;51.146;17.072;2023-05-25T01:53:21;100844.56;;;8.96;79.44
77153;BME280;66124;51.146;17.072;2023-05-25T01:55:54;100842.53;;;8.96;79.56
77153;BME280;66124;51.146;17.072;2023-05-25T01:58:30;100841.30;;;8.94;79.57
77153;BME280;66124;51.146;17.072;2023-05-25T02:01:03;100839.56;;;8.94;79.44
77153;BME280;66124;51.146;17.072;2023-05-25T02:03:33;100836.66;;;8.93;79.45
77153;BME280;66124;51.146;17.072;2023-05-25T02:06:02;100842.09;;;8.93;79.49
77153;BME280;66124;51.146;17.072;2023-05-25T02:08:32;100841.26;;;8.93;79.34
77153;BME280;66124;51.146;17.072;2023-05-25T02:11:02;100840.04;;;8.93;79.49
77153;BME280;66124;51.146;17.072;2023-05-25T02:13:31;100841.22;;;8.93;79.49
77153;BME280;66124;51.146;17.072;2023-05-25T02:16:01;100847.44;;;8.93;79.55
77153;BME280;66124;51.146;17.072;2023-05-25T02:18:29;100846.17;;;8.91;79.50
77153;BME280;66124;51.146;17.072;2023-05-25T02:27:15;100849.95;;;8.99;79.54
77153;BME280;66124;51.146;17.072;2023-05-25T02:29:44;100848.42;;;9.02;79.43
77153;BME280;66124;51.146;17.072;2023-05-25T02:32:14;100847.99;;;9.06;79.38
77153;BME280;66124;51.146;17.072;2023-05-25T02:34:43;100845.05;;;9.09;79.25
77153;BME280;66124;51.146;17.072;2023-05-25T02:37:12;100841.74;;;9.10;79.34
77153;BME280;66124;51.146;17.072;2023-05-25T02:39:43;100846.78;;;9.11;79.20
77153;BME280;66124;51.146;17.072;2023-05-25T02:42:13;100844.95;;;9.10;79.27
77153;BME280;66124;51.146;17.072;2023-05-25T02:44:42;100846.91;;;9.11;79.20
77153;BME280;66124;51.146;17.072;2023-05-25T02:47:11;100844.70;;;9.11;79.21
77153;BME280;66124;51.146;17.072;2023-05-25T02:49:41;100845.02;;;9.09;79.16
77153;BME280;66124;51.146;17.072;2023-05-25T02:52:10;100844.13;;;9.08;79.25
77153;BME280;66124;51.146;17.072;2023-05-25T02:54:40;100845.89;;;9.06;79.10
77153;BME280;66124;51.146;17.072;2023-05-25T02:57:09;100843.64;;;9.04;79.18
77153;BME280;66124;51.146;17.072;2023-05-25T02:59:39;100840.04;;;9.03;79.25
77153;BME280;66124;51.146;17.072;2023-05-25T03:02:08;100838.94;;;9.04;79.23
77153;BME280;66124;51.146;17.072;2023-05-25T03:04:37;100838.73;;;9.06;79.09
77153;BME280;66124;51.146;17.072;2023-05-25T03:07:07;100834.11;;;9.06;79.00
77153;BME280;66124;51.146;17.072;2023-05-25T03:09:36;100839.16;;;9.07;79.17
77153;BME280;66124;51.146;17.072;2023-05-25T03:12:06;100839.45;;;9.07;79.21
77153;BME280;66124;51.146;17.072;2023-05-25T03:14:36;100845.50;;;9.06;79.26
77153;BME280;66124;51.146;17.072;2023-05-25T03:17:05;100849.56;;;9.08;79.28
77153;BME280;66124;51.146;17.072;2023-05-25T03:19:35;100851.42;;;9.11;79.21
77153;BME280;66124;51.146;17.072;2023-05-25T03:22:05;100858.84;;;9.15;79.29
77153;BME280;66124;51.146;17.072;2023-05-25T03:24:34;100860.04;;;9.17;79.05
77153;BME280;66124;51.146;17.072;2023-05-25T03:27:04;100862.15;;;9.23;79.19
77153;BME280;66124;51.146;17.072;2023-05-25T03:29:33;100864.79;;;9.24;79.27
77153;BME280;66124;51.146;17.072;2023-05-25T03:32:03;100868.13;;;9.27;78.83
77153;BME280;66124;51.146;17.072;2023-05-25T03:34:33;100872.14;;;9.29;79.06
77153;BME280;66124;51.146;17.072;2023-05-25T03:37:02;100874.73;;;9.31;79.13
77153;BME280;66124;51.146;17.072;2023-05-25T03:39:30;100874.69;;;9.35;79.00
77153;BME280;66124;51.146;17.072;2023-05-25T03:47:05;100874.48;;;9.39;79.31
77153;BME280;66124;51.146;17.072;2023-05-25T03:49:35;100874.23;;;9.36;79.63
77153;BME280;66124;51.146;17.072;2023-05-25T03:52:05;100870.85;;;9.35;79.74
77153;BME280;66124;51.146;17.072;2023-05-25T03:54:34;100872.33;;;9.36;79.71
77153;BME280;66124;51.146;17.072;2023-05-25T03:57:04;100871.48;;;9.38;79.75
77153;BME280;66124;51.146;17.072;2023-05-25T03:59:36;100872.17;;;9.38;79.93
77153;BME280;66124;51.146;17.072;2023-05-25T04:02:06;100874.81;;;9.39;79.84
77153;BME280;66124;51.146;17.072;2023-05-25T04:04:35;100881.24;;;9.43;79.95
77153;BME280;66124;51.146;17.072;2023-05-25T04:07:05;100883.94;;;9.48;79.95
77153;BME280;66124;51.146;17.072;2023-05-25T04:09:34;100886.94;;;9.54;79.77
77153;BME280;66124;51.146;17.072;2023-05-25T04:12:04;100885.16;;;9.61;79.71
77153;BME280;66124;51.146;17.072;2023-05-25T04:14:33;100885.27;;;9.67;79.94
77153;BME280;66124;51.146;17.072;2023-05-25T04:17:03;100888.32;;;9.73;79.67
77153;BME280;66124;51.146;17.072;2023-05-25T04:19:33;100892.91;;;9.81;79.71
77153;BME280;66124;51.146;17.072;2023-05-25T04:22:02;100894.66;;;9.90;79.53
77153;BME280;66124;51.146;17.072;2023-05-25T04:24:32;100898.30;;;9.97;79.42
77153;BME280;66124;51.146;17.072;2023-05-25T04:27:01;100897.27;;;10.02;79.42
77153;BME280;66124;51.146;17.072;2023-05-25T04:29:30;100897.91;;;10.06;79.34
77153;BME280;66124;51.146;17.072;2023-05-25T04:32:00;100901.68;;;10.10;79.28
77153;BME280;66124;51.146;17.072;2023-05-25T04:34:29;100903.10;;;10.11;79.18
77153;BME280;66124;51.146;17.072;2023-05-25T04:36:58;100902.73;;;10.13;79.22
77153;BME280;66124;51.146;17.072;2023-05-25T04:39:28;100899.71;;;10.14;79.17
77153;BME280;66124;51.146;17.072;2023-05-25T04:41:57;100905.38;;;10.13;79.10
77153;BME280;66124;51.146;17.072;2023-05-25T04:44:27;100901.56;;;10.13;79.17
77153;BME280;66124;51.146;17.072;2023-05-25T04:46:56;100897.20;;;10.14;78.92
77153;BME280;66124;51.146;17.072;2023-05-25T04:49:26;100901.63;;;10.15;79.37
77153;BME280;66124;51.146;17.072;2023-05-25T04:51:55;100900.40;;;10.19;79.01
77153;BME280;66124;51.146;17.072;2023-05-25T04:54:24;100904.77;;;10.22;79.20
77153;BME280;66124;51.146;17.072;2023-05-25T04:56:54;100901.76;;;10.26;79.00
77153;BME280;66124;51.146;17.072;2023-05-25T05:08:23;100903.63;;;10.49;78.80
77153;BME280;66124;51.146;17.072;2023-05-25T05:10:52;100907.84;;;10.52;78.77
77153;BME280;66124;51.146;17.072;2023-05-25T05:13:21;100909.86;;;10.57;78.48
77153;BME280;66124;51.146;17.072;2023-05-25T05:15:51;100913.14;;;10.61;78.68
77153;BME280;66124;51.146;17.072;2023-05-25T05:18:20;100911.55;;;10.64;78.52
77153;BME280;66124;51.146;17.072;2023-05-25T05:20:51;100902.73;;;10.66;78.66
77153;BME280;66124;51.146;17.072;2023-05-25T05:23:20;100910.95;;;10.73;78.48
77153;BME280;66124;51.146;17.072;2023-05-25T05:25:50;100912.48;;;10.80;78.31
77153;BME280;66124;51.146;17.072;2023-05-25T05:28:19;100915.61;;;10.87;78.27
77153;BME280;66124;51.146;17.072;2023-05-25T05:30:49;100922.14;;;10.93;78.05
77153;BME280;66124;51.146;17.072;2023-05-25T05:33:18;100922.58;;;11.00;78.20
77153;BME280;66124;51.146;17.072;2023-05-25T05:35:48;100927.41;;;11.07;77.87
77153;BME280;66124;51.146;17.072;2023-05-25T05:38:17;100925.80;;;11.09;77.88
77153;BME280;66124;51.146;17.072;2023-05-25T05:40:46;100930.71;;;11.16;77.74
77153;BME280;66124;51.146;17.072;2023-05-25T05:43:16;100928.27;;;11.20;77.66
77153;BME280;66124;51.146;17.072;2023-05-25T05:45:45;100928.30;;;11.25;77.27
77153;BME280;66124;51.146;17.072;2023-05-25T05:48:15;100926.77;;;11.31;77.48
77153;BME280;66124;51.146;17.072;2023-05-25T05:50:44;100926.15;;;11.37;77.39
77153;BME280;66124;51.146;17.072;2023-05-25T05:53:13;100925.84;;;11.41;77.51
77153;BME280;66124;51.146;17.072;2023-05-25T05:55:43;100928.93;;;11.47;76.91
77153;BME280;66124;51.146;17.072;2023-05-25T05:58:12;100936.48;;;11.51;77.01
77153;BME280;66124;51.146;17.072;2023-05-25T06:00:42;100936.02;;;11.55;76.89
77153;BME280;66124;51.146;17.072;2023-05-25T06:03:11;100937.72;;;11.58;76.51
77153;BME280;66124;51.146;17.072;2023-05-25T06:05:41;100940.04;;;11.59;76.60
77153;BME280;66124;51.146;17.072;2023-05-25T06:08:10;100942.64;;;11.61;76.40
77153;BME280;66124;51.146;17.072;2023-05-25T06:10:39;100942.67;;;11.64;76.47
77153;BME280;66124;51.146;17.072;2023-05-25T06:13:09;100939.40;;;11.65;76.54
77153;BME280;66124;51.146;17.072;2023-05-25T06:15:38;100942.52;;;11.65;76.13
77153;BME280;66124;51.146;17.072;2023-05-25T06:18:06;100944.59;;;11.67;76.35
77153;BME280;66124;51.146;17.072;2023-05-25T06:20:34;100945.14;;;11.69;75.97
77153;BME280;66124;51.146;17.072;2023-05-25T06:28:13;100946.88;;;11.81;75.79
77153;BME280;66124;51.146;17.072;2023-05-25T06:30:43;100948.49;;;11.86;76.02
77153;BME280;66124;51.146;17.072;2023-05-25T06:33:13;100946.21;;;11.95;75.77
77153;BME280;66124;51.146;17.072;2023-05-25T06:35:42;100946.65;;;12.04;75.58
77153;BME280;66124;51.146;17.072;2023-05-25T06:38:12;100947.88;;;12.12;75.45
77153;BME280;66124;51.146;17.072;2023-05-25T06:40:42;100944.98;;;12.19;75.39
77153;BME280;66124;51.146;17.072;2023-05-25T06:43:11;100945.38;;;12.26;75.35
77153;BME280;66124;51.146;17.072;2023-05-25T06:45:41;100945.35;;;12.34;75.32
77153;BME280;66124;51.146;17.072;2023-05-25T06:48:10;100944.49;;;12.46;75.17
77153;BME280;66124;51.146;17.072;2023-05-25T06:50:40;100942.94;;;12.60;74.86
77153;BME280;66124;51.146;17.072;2023-05-25T06:53:09;100948.50;;;12.74;74.68
77153;BME280;66124;51.146;17.072;2023-05-25T06:55:39;100931.90;;;12.82;74.37
77153;BME280;66124;51.146;17.072;2023-05-25T06:58:08;100941.29;;;12.99;74.38
77153;BME280;66124;51.146;17.072;2023-05-25T07:00:38;100936.42;;;13.06;73.95
77153;BME280;66124;51.146;17.072;2023-05-25T07:03:07;100938.90;;;13.09;73.75
77153;BME280;66124;51.146;17.072;2023-05-25T07:05:36;100934.88;;;13.12;73.62
77153;BME280;66124;51.146;17.072;2023-05-25T07:08:06;100937.69;;;13.15;73.51
77153;BME280;66124;51.146;17.072;2023-05-25T07:10:35;100938.59;;;13.20;73.28
77153;BME280;66124;51.146;17.072;2023-05-25T07:13:05;100936.71;;;13.22;72.88
77153;BME280;66124;51.146;17.072;2023-05-25T07:15:34;100935.23;;;13.24;73.03
77153;BME280;66124;51.146;17.072;2023-05-25T07:18:04;100937.08;;;13.29;72.77
77153;BME280;66124;51.146;17.072;2023-05-25T07:20:33;100935.65;;;13.36;72.84
77153;BME280;66124;51.146;17.072;2023-05-25T07:23:02;100937.27;;;13.43;72.51
77153;BME280;66124;51.146;17.072;2023-05-25T07:25:32;100934.95;;;13.48;72.27
77153;BME280;66124;51.146;17.072;2023-05-25T07:28:01;100925.95;;;13.43;72.40
77153;BME280;66124;51.146;17.072;2023-05-25T07:30:31;100938.28;;;13.55;72.28
77153;BME280;66124;51.146;17.072;2023-05-25T07:33:00;100943.49;;;13.57;72.19
77153;BME280;66124;51.146;17.072;2023-05-25T07:35:30;100941.23;;;13.61;72.08
77153;BME280;66124;51.146;17.072;2023-05-25T07:37:58;100943.36;;;13.67;71.84
77153;BME280;66124;51.146;17.072;2023-05-25T07:40:26;100950.48;;;13.74;71.91
77153;BME280;66124;51.146;17.072;2023-05-25T07:46:35;100954.05;;;13.90;71.59
77153;BME280;66124;51.146;17.072;2023-05-25T07:49:05;100955.49;;;13.94;71.49
77153;BME280;66124;51.146;17.072;2023-05-25T07:51:34;100953.19;;;14.05;71.26
77153;BME280;66124;51.146;17.072;2023-05-25T07:54:04;100954.52;;;14.15;71.29
77153;BME280;66124;51.146;17.072;2023-05-25T07:56:33;100956.77;;;14.26;71.01
77153;BME280;66124;51.146;17.072;2023-05-25T07:59:04;100960.70;;;14.34;70.70
77153;BME280;66124;51.146;17.072;2023-05-25T08:01:33;100964.55;;;14.42;70.64
77153;BME280;66124;51.146;17.072;2023-05-25T08:04:03;100973.28;;;14.45;70.33
77153;BME280;66124;51.146;17.072;2023-05-25T08:06:32;100970.35;;;14.46;70.17
77153;BME280;66124;51.146;17.072;2023-05-25T08:09:03;100972.08;;;14.47;70.10
77153;BME280;66124;51.146;17.072;2023-05-25T08:11:33;100972.02;;;14.48;70.01
77153;BME280;66124;51.146;17.072;2023-05-25T08:14:02;100968.61;;;14.50;69.92
77153;BME280;66124;51.146;17.072;2023-05-25T08:16:32;100968.17;;;14.54;69.74
77153;BME280;66124;51.146;17.072;2023-05-25T08:19:01;100966.58;;;14.54;69.63
77153;BME280;66124;51.146;17.072;2023-05-25T08:21:30;100967.42;;;14.57;69.62
77153;BME280;66124;51.146;17.072;2023-05-25T08:24:00;100967.97;;;14.65;69.57
77153;BME280;66124;51.146;17.072;2023-05-25T08:26:29;100968.02;;;14.74;69.66
77153;BME280;66124;51.146;17.072;2023-05-25T08:28:59;100968.05;;;14.85;69.47
77153;BME280;66124;51.146;17.072;2023-05-25T08:31:30;100971.23;;;14.95;69.35
77153;BME280;66124;51.146;17.072;2023-05-25T08:33:59;100967.11;;;14.97;69.07
77153;BME280;66124;51.146;17.072;2023-05-25T08:36:29;100968.83;;;15.00;68.73
77153;BME280;66124;51.146;17.072;2023-05-25T08:38:58;100973.34;;;15.04;68.49
77153;BME280;66124;51.146;17.072;2023-05-25T08:41:28;100971.77;;;15.09;68.60
77153;BME280;66124;51.146;17.072;2023-05-25T08:43:58;100964.15;;;15.16;68.48
77153;BME280;66124;51.146;17.072;2023-05-25T08:46:30;100964.11;;;15.21;68.13
77153;BME280;66124;51.146;17.072;2023-05-25T08:49:05;100966.23;;;15.27;68.13
77153;BME280;66124;51.146;17.072;2023-05-25T08:51:38;100966.04;;;15.35;68.11
77153;BME280;66124;51.146;17.072;2023-05-25T08:54:11;100971.94;;;15.38;67.76
77153;BME280;66124;51.146;17.072;2023-05-25T08:56:48;100975.45;;;15.37;67.30
77153;BME280;66124;51.146;17.072;2023-05-25T08:59:19;100979.79;;;15.32;67.12
77153;BME280;66124;51.146;17.072;2023-05-25T09:07:06;100980.94;;;15.33;67.22
77153;BME280;66124;51.146;17.072;2023-05-25T09:09:36;100985.81;;;15.39;67.40
77153;BME280;66124;51.146;17.072;2023-05-25T09:12:08;100987.60;;;15.49;67.34
77153;BME280;66124;51.146;17.072;2023-05-25T09:14:37;100983.02;;;15.56;67.17
77153;BME280;66124;51.146;17.072;2023-05-25T09:17:07;100983.07;;;15.65;66.98
77153;BME280;66124;51.146;17.072;2023-05-25T09:19:37;100985.59;;;15.70;66.71
77153;BME280;66124;51.146;17.072;2023-05-25T09:22:06;100987.09;;;15.73;66.54
77153;BME280;66124;51.146;17.072;2023-05-25T09:24:36;100991.73;;;15.74;66.52
77153;BME280;66124;51.146;17.072;2023-05-25T09:27:09;100989.01;;;15.78;66.40
77153;BME280;66124;51.146;17.072;2023-05-25T09:29:39;100985.79;;;15.88;65.82
77153;BME280;66124;51.146;17.072;2023-05-25T09:32:08;100980.66;;;15.98;65.45
77153;BME280;66124;51.146;17.072;2023-05-25T09:34:38;100976.55;;;16.09;65.33
77153;BME280;66124;51.146;17.072;2023-05-25T09:37:12;100972.73;;;16.26;65.25
77153;BME280;66124;51.146;17.072;2023-05-25T09:39:42;100974.61;;;16.48;64.89
77153;BME280;66124;51.146;17.072;2023-05-25T09:42:12;100977.40;;;16.70;64.38
77153;BME280;66124;51.146;17.072;2023-05-25T09:44:42;100973.64;;;16.88;63.93
77153;BME280;66124;51.146;17.072;2023-05-25T09:47:11;100974.58;;;17.07;63.73
77153;BME280;66124;51.146;17.072;2023-05-25T09:49:41;100973.56;;;17.33;63.49
77153;BME280;66124;51.146;17.072;2023-05-25T09:52:12;100973.50;;;17.64;63.16
77153;BME280;66124;51.146;17.072;2023-05-25T09:54:46;100968.36;;;17.94;62.31
77153;BME280;66124;51.146;17.072;2023-05-25T09:57:16;100968.00;;;18.20;61.31
77153;BME280;66124;51.146;17.072;2023-05-25T09:59:46;100970.40;;;18.40;60.68
77153;BME280;66124;51.146;17.072;2023-05-25T10:02:16;100972.23;;;18.58;59.91
77153;BME280;66124;51.146;17.072;2023-05-25T10:04:45;100974.42;;;18.64;58.99
77153;BME280;66124;51.146;17.072;2023-05-25T10:07:15;100975.81;;;18.58;58.16
77153;BME280;66124;51.146;17.072;2023-05-25T10:09:46;100975.77;;;18.44;58.04
77153;BME280;66124;51.146;17.072;2023-05-25T10:12:20;100969.55;;;18.38;57.95
77153;BME280;66124;51.146;17.072;2023-05-25T10:14:53;100973.73;;;18.37;58.34
77153;BME280;66124;51.146;17.072;2023-05-25T10:17:24;100979.09;;;18.43;58.01
77153;BME280;66124;51.146;17.072;2023-05-25T10:27:40;100977.03;;;18.60;57.11
77153;BME280;66124;51.146;17.072;2023-05-25T10:30:12;100975.67;;;18.69;57.00
77153;BME280;66124;51.146;17.072;2023-05-25T10:32:43;100979.77;;;18.73;56.75
77153;BME280;66124;51.146;17.072;2023-05-25T10:35:14;100980.12;;;18.74;57.19
77153;BME280;66124;51.146;17.072;2023-05-25T10:37:45;100980.83;;;18.80;57.00
77153;BME280;66124;51.146;17.072;2023-05-25T10:40:15;100977.91;;;18.86;56.65
77153;BME280;66124;51.146;17.072;2023-05-25T10:42:45;100972.45;;;18.97;56.39
77153;BME280;66124;51.146;17.072;2023-05-25T10:45:15;100975.84;;;19.15;56.33
77153;BME280;66124;51.146;17.072;2023-05-25T10:47:45;100969.41;;;19.33;55.98
77153;BME280;66124;51.146;17.072;2023-05-25T10:50:23;100966.37;;;19.44;55.70
77153;BME280;66124;51.146;17.072;2023-05-25T10:53:00;100970.74;;;19.57;55.39
77153;BME280;66124;51.146;17.072;2023-05-25T10:55:42;100969.73;;;19.60;54.68
77153;BME280;66124;51.146;17.072;2023-05-25T10:58:13;100965.57;;;19.51;54.73
77153;BME280;66124;51.146;17.072;2023-05-25T11:00:47;100970.76;;;19.56;55.12
77153;BME280;66124;51.146;17.072;2023-05-25T11:03:48;100966.27;;;19.68;54.74
77153;BME280;66124;51.146;17.072;2023-05-25T11:06:19;100965.75;;;19.74;54.57
77153;BME280;66124;51.146;17.072;2023-05-25T11:08:55;100954.29;;;19.77;54.59
77153;BME280;66124;51.146;17.072;2023-05-25T11:12:03;100956.51;;;19.85;54.44
77153;BME280;66124;51.146;17.072;2023-05-25T11:14:33;100951.10;;;19.83;54.38
77153;BME280;66124;51.146;17.072;2023-05-25T11:17:07;100954.05;;;19.75;54.16
77153;BME280;66124;51.146;17.072;2023-05-25T11:19:42;100951.69;;;19.66;54.10
77153;BME280;66124;51.146;17.072;2023-05-25T11:22:16;100948.33;;;19.59;54.20
77153;BME280;66124;51.146;17.072;2023-05-25T11:24:46;100947.33;;;19.56;54.50
77153;BME280;66124;51.146;17.072;2023-05-25T11:27:22;100943.71;;;19.59;54.55
77153;BME280;66124;51.146;17.072;2023-05-25T11:29:53;100939.76;;;19.65;54.34
77153;BME280;66124;51.146;17.072;2023-05-25T11:32:23;100942.70;;;19.69;54.36
77153;BME280;66124;51.146;17.072;2023-05-25T11:34:54;100942.03;;;19.67;54.04
77153;BME280;66124;51.146;17.072;2023-05-25T11:37:25;100944.70;;;19.65;54.11
77153;BME280;66124;51.146;17.072;2023-05-25T11:39:53;100944.70;;;19.68;54.21
77153;BME280;66124;51.146;17.072;2023-05-25T11:47:31;100939.95;;;19.86;53.80
77153;BME280;66124;51.146;17.072;2023-05-25T11:50:01;100935.09;;;19.85;53.47
77153;BME280;66124;51.146;17.072;2023-05-25T11:52:31;100937.52;;;19.82;53.44
77153;BME280;66124;51.146;17.072;2023-05-25T11:55:00;100933.67;;;19.75;53.52
77153;BME280;66124;51.146;17.072;2023-05-25T11:57:30;100931.65;;;19.72;53.51
77153;BME280;66124;51.146;17.072;2023-05-25T12:00:00;100937.97;;;19.67;53.57
77153;BME280;66124;51.146;17.072;2023-05-25T12:02:37;100934.55;;;19.58;53.66
77153;BME280;66124;51.146;17.072;2023-05-25T12:05:06;100937.38;;;19.55;53.91
77153;BME280;66124;51.146;17.072;2023-05-25T12:07:40;100934.36;;;19.56;54.24
77153;BME280;66124;51.146;17.072;2023-05-25T12:10:12;100915.77;;;19.55;53.81
77153;BME280;66124;51.146;17.072;2023-05-25T12:12:43;100925.36;;;19.71;53.87
77153;BME280;66124;51.146;17.072;2023-05-25T12:15:14;100923.48;;;19.81;53.96
77153;BME280;66124;51.146;17.072;2023-05-25T12:17:45;100926.48;;;19.90;53.62
77153;BME280;66124;51.146;17.072;2023-05-25T12:20:16;100923.20;;;19.95;53.49
77153;BME280;66124;51.146;17.072;2023-05-25T12:22:47;100927.38;;;19.97;53.26
77153;BME280;66124;51.146;17.072;2023-05-25T12:25:19;100927.13;;;19.94;53.49
77153;BME280;66124;51.146;17.072;2023-05-25T12:27:48;100927.60;;;19.96;53.45
77153;BME280;66124;51.146;17.072;2023-05-25T12:30:37;100922.07;;;19.97;53.46
77153;BME280;66124;51.146;17.072;2023-05-25T12:33:07;100924.05;;;19.97;53.56
77153;BME280;66124;51.146;17.072;2023-05-25T12:35:47;100917.91;;;19.94;53.72
77153;BME280;66124;51.146;17.072;2023-05-25T12:38:17;100920.32;;;19.88;53.70
77153;BME280;66124;51.146;17.072;2023-05-25T12:40:48;100915.23;;;19.78;53.60
77153;BME280;66124;51.146;17.072;2023-05-25T12:43:38;100916.23;;;19.71;53.73
77153;BME280;66124;51.146;17.072;2023-05-25T12:46:08;100910.67;;;19.69;53.85
77153;BME280;66124;51.146;17.072;2023-05-25T12:48:37;100907.66;;;19.71;53.62
77153;BME280;66124;51.146;17.072;2023-05-25T12:51:07;100910.11;;;19.76;53.44
77153;BME280;66124;51.146;17.072;2023-05-25T12:53:49;100905.02;;;19.83;53.01
77153;BME280;66124;51.146;17.072;2023-05-25T12:56:18;100903.25;;;20.00;52.86
77153;BME280;66124;51.146;17.072;2023-05-25T12:58:46;100899.66;;;20.29;52.49
77153;BME280;66124;51.146;17.072;2023-05-25T13:06:39;100888.20;;;21.11;51.54
77153;BME280;66124;51.146;17.072;2023-05-25T13:09:08;100889.95;;;21.14;51.26
77153;BME280;66124;51.146;17.072;2023-05-25T13:11:38;100887.76;;;21.07;51.24
77153;BME280;66124;51.146;17.072;2023-05-25T13:14:07;100885.73;;;20.99;51.30
77153;BME280;66124;51.146;17.072;2023-05-25T13:16:36;100891.87;;;20.91;51.27
77153;BME280;66124;51.146;17.072;2023-05-25T13:19:07;100887.02;;;20.88;51.31
77153;BME280;66124;51.146;17.072;2023-05-25T13:21:37;100888.80;;;20.93;51.30
77153;BME280;66124;51.146;17.072;2023-05-25T13:24:07;100884.86;;;20.96;50.96
77153;BME280;66124;51.146;17.072;2023-05-25T13:26:36;100883.20;;;20.92;51.04
77153;BME280;66124;51.146;17.072;2023-05-25T13:29:06;100885.32;;;20.85;51.06
77153;BME280;66124;51.146;17.072;2023-05-25T13:31:35;100885.20;;;20.80;51.14
77153;BME280;66124;51.146;17.072;2023-05-25T13:34:05;100883.73;;;20.68;51.23
77153;BME280;66124;51.146;17.072;2023-05-25T13:36:34;100879.65;;;20.54;51.47
77153;BME280;66124;51.146;17.072;2023-05-25T13:39:04;100876.20;;;20.45;51.60
77153;BME280;66124;51.146;17.072;2023-05-25T13:41:33;100869.70;;;20.44;51.80
77153;BME280;66124;51.146;17.072;2023-05-25T13:44:02;100867.70;;;20.52;51.74
77153;BME280;66124;51.146;17.072;2023-05-25T13:46:32;100866.67;;;20.62;51.65
77153;BME280;66124;51.146;17.072;2023-05-25T13:49:01;100865.74;;;20.89;51.36
77153;BME280;66124;51.146;17.072;2023-05-25T13:51:30;100862.88;;;21.37;51.27
77153;BME280;66124;51.146;17.072;2023-05-25T13:54:00;100857.96;;;21.87;50.77
77153;BME280;66124;51.146;17.072;2023-05-25T13:56:29;100858.23;;;22.44;49.90